createdAt,value
2018-11-20T00:00:29.957Z,46.97
2018-11-20T00:03:30.697Z,49.40
2018-11-20T00:12:30.774Z,49.55
2018-11-20T00:15:31.242Z,44.18
2018-11-20T00:18:31.290Z,52.83
2018-11-20T00:21:39.273Z,52.45
2018-11-20T00:24:42.506Z,49.03
2018-11-20T00:27:42.766Z,53.87
2018-11-20T00:30:33.901Z,45.15
2018-11-20T00:33:26.066Z,50.28
2018-11-20T00:36:26.811Z,46.33
2018-11-20T00:39:26.967Z,46.68
2018-11-20T00:45:42.499Z,44.18
2018-11-20T00:48:43.035Z,42.80
2018-11-20T00:51:46.270Z,45.85
2018-11-20T00:54:46.821Z,47.60
2018-11-20T00:57:47.078Z,47.13
2018-11-20T01:00:53.857Z,50.05
2018-11-20T01:03:54.087Z,45.20
2018-11-20T01:06:54.067Z,46.08
2018-11-20T01:09:55.796Z,46.00
2018-11-20T01:12:56.072Z,45.00
2018-11-20T01:15:56.442Z,43.50
2018-11-20T01:18:56.872Z,51.85
2018-11-20T01:21:57.282Z,49.13
2018-11-20T01:24:57.523Z,45.92
2018-11-20T01:27:58.293Z,51.90
2018-11-20T01:30:59.579Z,47.60
2018-11-20T01:34:06.193Z,46.80
2018-11-20T01:37:06.861Z,53.87
2018-11-20T01:40:06.895Z,46.35
2018-11-20T01:43:06.897Z,51.58
2018-11-20T01:46:13.322Z,54.20
2018-11-20T01:49:13.469Z,46.20
2018-11-20T01:52:13.456Z,52.70
2018-11-20T01:55:13.477Z,47.70
2018-11-20T01:58:11.174Z,41.75
2018-11-20T02:01:11.945Z,47.53
2018-11-20T02:04:18.450Z,49.33
2018-11-20T02:07:24.720Z,52.23
2018-11-20T02:10:15.749Z,53.48
2018-11-20T02:13:15.794Z,49.00
2018-11-20T02:16:16.167Z,51.37
2018-11-20T02:19:17.627Z,48.80
2018-11-20T02:22:17.965Z,51.68
2018-11-20T02:25:21.181Z,46.15
2018-11-20T02:28:22.251Z,52.83
2018-11-20T02:31:22.614Z,47.73
2018-11-20T02:34:22.996Z,48.80
2018-11-20T02:37:23.876Z,46.77
2018-11-20T02:40:24.576Z,52.10
2018-11-20T02:43:30.847Z,50.92
2018-11-20T02:46:31.020Z,53.50
2018-11-20T02:49:31.001Z,51.30
2018-11-20T02:52:31.478Z,50.63
2018-11-20T02:55:31.760Z,48.02
2018-11-20T02:58:32.227Z,46.05
2018-11-20T03:01:35.877Z,49.55
2018-11-20T03:04:32.220Z,50.50
2018-11-20T03:07:32.768Z,48.45
2018-11-20T03:10:28.350Z,45.95
2018-11-20T03:13:17.541Z,51.60
2018-11-20T03:16:25.446Z,54.40
2018-11-20T03:19:25.992Z,46.42
2018-11-20T03:22:26.024Z,53.08
2018-11-20T03:25:32.330Z,47.05
2018-11-20T03:28:32.840Z,52.03
2018-11-20T03:31:33.206Z,47.93
2018-11-20T03:34:36.726Z,49.15
2018-11-20T03:37:40.420Z,56.08
2018-11-20T03:40:29.982Z,50.38
2018-11-20T03:43:23.663Z,45.05
2018-11-20T03:49:28.978Z,48.28
2018-11-20T03:52:35.223Z,53.20
2018-11-20T03:55:37.172Z,55.47
2018-11-20T03:58:37.326Z,48.93
2018-11-20T04:01:40.758Z,49.33
2018-11-20T04:07:44.255Z,43.73
2018-11-20T04:13:56.266Z,49.40
2018-11-20T04:16:59.267Z,51.07
2018-11-20T04:20:02.574Z,50.23
2018-11-20T04:26:07.480Z,51.03
2018-11-20T04:29:10.610Z,51.43
2018-11-20T04:35:18.470Z,48.87
2018-11-20T04:38:25.482Z,45.13
2018-11-20T04:41:14.320Z,49.47
2018-11-20T04:44:17.913Z,47.93
2018-11-20T04:47:24.318Z,50.00
2018-11-20T04:50:15.746Z,51.93
2018-11-20T04:56:27.190Z,49.93
2018-11-20T05:02:32.125Z,49.90
2018-11-20T05:08:42.086Z,54.47
2018-11-20T05:14:35.895Z,55.30
2018-11-20T05:20:41.638Z,53.60
2018-11-20T05:26:37.911Z,47.00
2018-11-20T05:29:44.134Z,52.73
2018-11-20T05:32:47.546Z,48.70
2018-11-20T05:38:50.214Z,46.80
2018-11-20T05:41:53.466Z,51.97
2018-11-20T05:45:02.355Z,52.17
2018-11-20T05:51:20.382Z,51.77
2018-11-20T05:57:29.894Z,47.40
2018-11-20T06:00:19.192Z,48.00
2018-11-20T06:03:20.432Z,52.23
2018-11-20T06:09:32.976Z,49.83
2018-11-20T06:15:36.420Z,58.73
2018-11-20T06:21:47.822Z,51.33
2018-11-20T06:27:35.513Z,54.10
2018-11-20T06:30:43.405Z,50.13
2018-11-20T06:33:47.078Z,53.20
2018-11-20T06:36:35.012Z,54.33
2018-11-20T06:39:38.390Z,45.40
2018-11-20T06:45:49.210Z,50.30
2018-11-20T06:48:52.430Z,47.60
2018-11-20T06:51:50.384Z,49.17
2018-11-20T06:54:51.134Z,53.90
2018-11-20T06:57:42.200Z,51.53
2018-11-20T07:03:47.848Z,51.97
2018-11-20T07:09:53.384Z,48.20
2018-11-20T07:13:00.066Z,51.43
2018-11-20T07:16:03.968Z,51.30
2018-11-20T07:22:48.167Z,52.83
2018-11-20T07:25:38.981Z,53.17
2018-11-20T07:28:42.732Z,54.73
2018-11-20T07:34:54.803Z,50.77
2018-11-20T07:37:55.118Z,53.03
2018-11-20T07:40:53.322Z,52.33
2018-11-20T07:44:02.859Z,54.73
2018-11-20T07:47:06.242Z,53.20
2018-11-20T07:50:09.597Z,50.70
2018-11-20T07:53:13.072Z,47.83
2018-11-20T08:02:57.156Z,54.10
2018-11-20T08:09:06.658Z,51.20
2018-11-20T08:12:06.756Z,56.23
2018-11-20T08:15:12.719Z,50.00
2018-11-20T08:18:12.976Z,49.93
2018-11-20T08:21:07.118Z,49.87
2018-11-20T08:23:59.520Z,51.50
2018-11-20T08:27:03.166Z,49.77
2018-11-20T08:36:08.642Z,51.33
2018-11-20T08:38:49.928Z,49.60
2018-11-20T08:44:18.158Z,50.70
2018-11-20T08:50:11.402Z,48.80
2018-11-20T08:53:11.858Z,47.73
2018-11-20T08:55:53.634Z,49.13
2018-11-20T09:01:37.109Z,50.83
2018-11-20T09:07:25.508Z,51.53
2018-11-20T09:13:29.114Z,51.90
2018-11-20T09:19:32.360Z,48.97
2018-11-20T09:25:43.032Z,50.03
2018-11-20T09:28:46.498Z,47.03
2018-11-20T09:31:47.064Z,46.13
2018-11-20T09:34:50.739Z,46.33
2018-11-20T09:37:54.502Z,48.60
2018-11-20T09:43:43.918Z,47.80
2018-11-20T09:46:44.246Z,50.47
2018-11-20T09:49:44.620Z,46.40
2018-11-20T09:52:45.035Z,47.87
2018-11-20T09:55:25.525Z,49.87
2018-11-20T10:00:47.080Z,46.50
2018-11-20T10:03:47.629Z,46.30
2018-11-20T10:06:45.642Z,48.70
2018-11-20T10:09:46.272Z,50.93
2018-11-20T10:12:27.815Z,45.07
2018-11-20T10:22:06.834Z,47.33
2018-11-20T10:28:10.067Z,49.20
2018-11-20T10:34:13.595Z,49.27
2018-11-20T10:37:19.918Z,50.23
2018-11-20T10:40:21.750Z,45.73
2018-11-20T10:46:26.689Z,47.50
2018-11-20T10:52:29.170Z,50.03
2018-11-20T10:58:31.280Z,45.07
2018-11-20T11:04:39.406Z,49.27
2018-11-20T11:10:38.093Z,42.10
2018-11-20T11:16:42.005Z,48.30
2018-11-20T11:22:06.387Z,48.30
2018-11-20T11:28:09.078Z,44.47
2018-11-20T11:31:09.478Z,47.97
2018-11-20T11:34:13.148Z,48.00
2018-11-20T11:40:22.025Z,45.93
2018-11-20T11:46:11.652Z,46.97
2018-11-20T11:52:18.995Z,47.27
2018-11-20T11:55:22.964Z,45.73
2018-11-20T11:58:06.086Z,47.20
2018-11-20T12:00:59.821Z,49.63
2018-11-20T12:10:21.370Z,47.87
2018-11-20T12:15:52.470Z,50.77
2018-11-20T12:24:09.013Z,50.87
2018-11-20T12:29:58.372Z,48.40
2018-11-20T12:44:18.125Z,48.93
2018-11-20T12:50:05.102Z,47.27
2018-11-20T12:58:34.240Z,47.87
2018-11-20T13:04:28.720Z,43.50
2018-11-20T13:07:28.237Z,46.30
2018-11-20T13:21:52.970Z,50.40
2018-11-20T13:33:58.902Z,47.17
2018-11-20T13:36:59.471Z,45.60
2018-11-20T13:39:42.755Z,48.60
2018-11-20T13:42:48.333Z,49.70
2018-11-20T13:48:35.537Z,48.60
2018-11-20T13:54:18.253Z,51.43
2018-11-20T13:57:21.539Z,44.47
2018-11-20T14:26:18.020Z,47.63
2018-11-20T14:34:57.060Z,49.43
2018-11-20T14:46:43.699Z,45.80
2018-11-20T14:49:47.348Z,46.60
2018-11-20T14:52:31.457Z,44.50
2018-11-20T14:55:31.466Z,49.37
2018-11-20T14:58:27.619Z,46.30
2018-11-20T15:01:21.844Z,58.30
2018-11-20T15:04:04.456Z,50.07
2018-11-20T15:10:00.465Z,44.87
2018-11-20T15:15:50.339Z,47.57
2018-11-20T15:18:44.011Z,45.33
2018-11-20T15:21:46.102Z,51.33
2018-11-20T15:24:46.378Z,55.70
2018-11-20T15:30:54.874Z,49.70
2018-11-20T15:33:55.294Z,50.77
2018-11-20T15:36:55.674Z,51.93
2018-11-20T15:39:59.056Z,50.67
2018-11-20T15:43:02.287Z,45.03
2018-11-20T15:46:02.549Z,49.80
2018-11-20T15:49:05.997Z,49.73
2018-11-20T15:55:11.733Z,54.37
2018-11-20T15:58:12.122Z,54.17
2018-11-20T16:03:53.865Z,49.00
2018-11-20T16:06:54.155Z,54.60
2018-11-20T16:09:57.892Z,54.53
2018-11-20T16:16:06.774Z,48.70
2018-11-20T16:19:07.367Z,50.80
2018-11-20T16:22:07.941Z,59.87
2018-11-20T16:25:08.572Z,50.30
2018-11-20T16:28:09.137Z,54.23
2018-11-20T16:30:59.414Z,56.53
2018-11-20T16:34:00.174Z,50.37
2018-11-20T16:37:00.476Z,57.60
2018-11-20T16:39:44.396Z,56.90
2018-11-20T16:45:27.744Z,52.77
2018-11-20T16:48:27.807Z,52.10
2018-11-20T16:51:28.218Z,60.53
2018-11-20T16:54:23.012Z,50.40
2018-11-20T16:57:05.900Z,58.53
2018-11-20T17:00:08.813Z,49.47
2018-11-20T17:03:08.816Z,52.63
2018-11-20T17:06:09.251Z,51.53
2018-11-20T17:09:09.756Z,47.87
2018-11-20T17:11:59.300Z,48.57
2018-11-20T17:14:44.178Z,53.20
2018-11-20T17:22:55.160Z,56.60
2018-11-20T17:25:55.847Z,49.57
2018-11-20T17:28:36.826Z,52.63
2018-11-20T17:34:12.256Z,51.40
2018-11-20T17:37:19.772Z,57.17
2018-11-20T17:40:04.107Z,55.07
2018-11-20T17:43:04.386Z,52.80
2018-11-20T17:46:04.481Z,54.00
2018-11-20T17:49:05.030Z,54.67
2018-11-20T17:51:47.788Z,54.67
2018-11-20T17:54:51.326Z,53.80
2018-11-20T17:57:33.952Z,59.27
2018-11-20T18:03:00.831Z,53.73
2018-11-20T18:08:41.912Z,59.00
2018-11-20T18:11:45.104Z,52.27
2018-11-20T18:14:36.709Z,55.78
2018-11-20T18:17:43.146Z,63.37
2018-11-20T18:21:08.492Z,56.90
2018-11-20T18:24:08.673Z,55.67
2018-11-20T18:27:08.788Z,60.30
2018-11-20T18:30:09.400Z,60.63
2018-11-20T18:33:09.842Z,60.67
2018-11-20T18:39:11.872Z,57.13
2018-11-20T18:44:54.859Z,55.10
2018-11-20T18:47:58.062Z,63.87
2018-11-20T18:51:00.072Z,56.90
2018-11-20T18:54:00.685Z,51.63
2018-11-20T18:57:01.815Z,55.37
2018-11-20T19:00:08.104Z,55.03
2018-11-20T19:03:09.017Z,59.13
2018-11-20T19:06:09.673Z,54.23
2018-11-20T19:09:12.996Z,70.83
2018-11-20T19:12:13.423Z,61.03
2018-11-20T19:15:13.747Z,56.07
2018-11-20T19:18:20.134Z,53.30
2018-11-20T19:21:19.163Z,56.23
2018-11-20T19:24:19.243Z,57.20
2018-11-20T19:27:19.364Z,54.17
2018-11-20T19:30:14.405Z,54.93
2018-11-20T19:33:14.658Z,54.90
2018-11-20T19:36:14.966Z,53.37
2018-11-20T19:39:15.747Z,58.93
2018-11-20T19:42:19.039Z,59.60
2018-11-20T19:45:19.150Z,53.80
2018-11-20T19:48:19.401Z,54.87
2018-11-20T19:51:20.260Z,53.77
2018-11-20T19:54:21.102Z,53.60
2018-11-20T19:57:21.616Z,53.70
2018-11-20T20:00:27.755Z,53.57
2018-11-20T20:03:34.311Z,57.53
2018-11-20T20:06:34.557Z,60.17
2018-11-20T20:09:35.438Z,54.80
2018-11-20T20:12:38.654Z,66.57
2018-11-20T20:15:39.341Z,58.90
2018-11-20T20:18:39.992Z,58.52
2018-11-20T20:21:40.743Z,58.90
2018-11-20T20:24:41.053Z,53.20
2018-11-20T20:27:41.172Z,51.63
2018-11-20T20:30:41.750Z,49.80
2018-11-20T20:33:45.889Z,53.40
2018-11-20T20:36:46.136Z,56.33
2018-11-20T20:39:46.802Z,58.87
2018-11-20T20:42:35.738Z,57.93
2018-11-20T20:45:39.243Z,63.20
2018-11-20T20:48:40.084Z,60.57
2018-11-20T20:51:40.213Z,64.20
2018-11-20T20:54:46.350Z,57.13
2018-11-20T20:57:47.056Z,59.93
2018-11-20T21:00:50.360Z,59.63
2018-11-20T21:03:47.877Z,58.57
2018-11-20T21:06:48.092Z,57.25
2018-11-20T21:09:48.840Z,59.63
2018-11-20T21:12:49.393Z,50.50
2018-11-20T21:15:49.734Z,56.57
2018-11-20T21:18:50.176Z,58.60
2018-11-20T21:21:50.180Z,58.10
2018-11-20T21:24:41.982Z,55.55
2018-11-20T21:27:40.968Z,51.02
2018-11-20T21:30:43.352Z,60.70
2018-11-20T21:33:42.042Z,65.67
2018-11-20T21:36:42.598Z,56.90
2018-11-20T21:39:42.878Z,61.33
2018-11-20T21:42:43.755Z,61.20
2018-11-20T21:45:44.743Z,61.28
2018-11-20T21:48:47.990Z,63.98
2018-11-20T21:51:51.866Z,56.23
2018-11-20T21:54:52.395Z,59.85
2018-11-20T22:01:02.388Z,55.70
2018-11-20T22:04:06.115Z,61.70
2018-11-20T22:07:15.403Z,56.10
2018-11-20T22:10:13.301Z,57.90
2018-11-20T22:16:19.122Z,55.33
2018-11-20T22:19:22.931Z,49.95
2018-11-20T22:22:23.854Z,60.17
2018-11-20T22:28:27.086Z,53.42
2018-11-20T22:31:27.381Z,57.17
2018-11-20T22:34:31.032Z,57.43
2018-11-20T22:37:40.220Z,53.08
2018-11-20T22:40:41.595Z,62.93
2018-11-20T22:46:54.529Z,51.60
2018-11-20T22:50:03.690Z,61.77
2018-11-20T22:53:09.962Z,62.27
2018-11-20T22:59:15.778Z,52.70
2018-11-20T23:05:25.566Z,54.85
2018-11-20T23:08:06.768Z,64.90
2018-11-20T23:10:47.948Z,61.73
2018-11-20T23:13:29.720Z,63.52
2018-11-20T23:16:11.410Z,61.65
2018-11-20T23:18:52.664Z,60.65
2018-11-20T23:21:33.786Z,53.05
2018-11-20T23:24:16.265Z,50.35
2018-11-20T23:26:57.598Z,57.67
2018-11-20T23:29:38.580Z,67.45
2018-11-20T23:32:19.906Z,62.03
2018-11-20T23:35:01.296Z,54.10
2018-11-20T23:37:43.302Z,66.80
2018-11-20T23:40:24.371Z,57.17
2018-11-20T23:43:05.900Z,58.13
2018-11-20T23:45:47.355Z,62.65
2018-11-20T23:48:28.934Z,62.13
2018-11-20T23:51:09.909Z,63.45
2018-11-20T23:53:51.183Z,56.55
2018-11-20T23:56:32.738Z,52.40
2018-11-20T23:59:14.400Z,61.70
